createdAt,value
2022-09-18T00:01:12.045Z,6.60
2022-09-18T00:06:32.822Z,4.33
2022-09-18T00:11:44.370Z,7.63
2022-09-18T00:16:54.751Z,7.50
2022-09-18T00:22:12.402Z,6.47
2022-09-18T00:27:25.931Z,8.87
2022-09-18T00:32:38.114Z,6.20
2022-09-18T00:37:52.072Z,4.50
2022-09-18T00:42:59.152Z,5.30
2022-09-18T00:48:11.159Z,7.20
2022-09-18T00:53:23.649Z,8.30
2022-09-18T00:58:47.161Z,6.90
2022-09-18T01:03:55.277Z,6.50
2022-09-18T01:09:21.428Z,7.77
2022-09-18T01:14:47.417Z,7.53
2022-09-18T01:20:20.486Z,8.03
2022-09-18T01:26:06.720Z,9.10
2022-09-18T01:31:29.515Z,8.47
2022-09-18T01:36:47.100Z,7.17
2022-09-18T01:42:01.929Z,5.33
2022-09-18T01:47:19.337Z,5.53
2022-09-18T01:52:43.741Z,5.17
2022-09-18T01:57:57.861Z,6.93
2022-09-18T02:03:16.263Z,5.73
2022-09-18T02:08:27.950Z,7.87
2022-09-18T02:13:44.026Z,4.30
2022-09-18T02:18:59.125Z,6.43
2022-09-18T02:24:16.100Z,8.30
2022-09-18T02:29:23.962Z,6.63
2022-09-18T02:34:35.536Z,6.50
2022-09-18T02:40:01.094Z,4.20
2022-09-18T02:45:19.938Z,6.80
2022-09-18T02:50:36.058Z,12.23
2022-09-18T02:55:54.317Z,7.80
2022-09-18T03:01:04.821Z,8.53
2022-09-18T03:06:13.947Z,5.87
2022-09-18T03:11:36.822Z,9.43
2022-09-18T03:16:52.937Z,8.17
2022-09-18T03:22:01.903Z,10.03
2022-09-18T03:27:16.451Z,6.70
2022-09-18T03:32:37.424Z,4.63
2022-09-18T03:37:47.279Z,8.47
2022-09-18T03:42:57.351Z,8.67
2022-09-18T03:48:03.436Z,13.30
2022-09-18T03:53:21.889Z,8.37
2022-09-18T03:58:40.313Z,4.93
2022-09-18T04:03:48.488Z,8.03
2022-09-18T04:08:57.707Z,4.67
2022-09-18T04:14:09.464Z,6.50
2022-09-18T04:19:25.416Z,7.97
2022-09-18T04:24:33.276Z,5.90
2022-09-18T04:29:47.239Z,6.40
2022-09-18T04:35:02.255Z,5.03
2022-09-18T04:40:18.524Z,10.70
2022-09-18T04:45:23.035Z,2.83
2022-09-18T04:50:33.311Z,8.43
2022-09-18T04:55:42.023Z,9.13
2022-09-18T05:00:53.032Z,7.23
2022-09-18T05:06:01.310Z,7.13
2022-09-18T05:11:18.667Z,6.17
2022-09-18T05:16:50.362Z,8.00
2022-09-18T05:22:06.263Z,4.03
2022-09-18T05:27:24.740Z,5.60
2022-09-18T05:32:59.051Z,7.07
2022-09-18T05:38:08.486Z,5.13
2022-09-18T05:43:23.406Z,7.20
2022-09-18T05:48:33.032Z,3.00
2022-09-18T05:53:41.499Z,4.90
2022-09-18T05:58:49.987Z,9.77
2022-09-18T06:04:07.915Z,5.13
2022-09-18T06:09:20.636Z,5.83
2022-09-18T06:14:51.945Z,5.17
2022-09-18T06:19:59.917Z,6.37
2022-09-18T06:25:13.504Z,8.50
2022-09-18T06:30:20.526Z,4.10
2022-09-18T06:35:29.947Z,7.23
2022-09-18T06:40:41.775Z,5.77
2022-09-18T06:45:55.177Z,3.17
2022-09-18T06:51:09.192Z,5.55
2022-09-18T06:56:13.924Z,3.78
2022-09-18T07:01:27.565Z,6.95
2022-09-18T07:06:49.765Z,5.13
2022-09-18T07:11:58.407Z,5.55
2022-09-18T07:17:17.130Z,4.10
2022-09-18T07:22:26.122Z,7.93
2022-09-18T07:27:32.186Z,3.10
2022-09-18T07:32:39.388Z,5.45
2022-09-18T07:37:58.797Z,7.28
2022-09-18T07:43:12.319Z,3.00
2022-09-18T07:48:21.504Z,6.97
2022-09-18T07:58:51.549Z,6.38
2022-09-18T08:04:05.920Z,5.63
2022-09-18T08:09:11.993Z,5.22
2022-09-18T08:14:19.599Z,6.80
2022-09-18T08:19:32.469Z,5.38
2022-09-18T08:24:43.375Z,8.13
2022-09-18T08:29:53.710Z,6.13
2022-09-18T08:35:10.735Z,4.63
2022-09-18T08:40:31.756Z,4.00
2022-09-18T08:45:59.033Z,4.03
2022-09-18T08:51:20.475Z,5.72
2022-09-18T08:56:34.065Z,7.03
2022-09-18T09:01:47.165Z,5.07
2022-09-18T09:07:07.373Z,7.03
2022-09-18T09:12:24.657Z,3.92
2022-09-18T09:17:42.160Z,4.03
2022-09-18T09:22:56.118Z,4.20
2022-09-18T09:28:16.517Z,4.40
2022-09-18T09:33:32.236Z,3.92
2022-09-18T09:44:27.527Z,3.95
2022-09-18T09:49:42.226Z,4.10
2022-09-18T09:54:50.323Z,4.57
2022-09-18T10:00:09.741Z,3.35
2022-09-18T10:05:28.973Z,5.88
2022-09-18T10:10:50.861Z,4.25
2022-09-18T10:16:05.514Z,4.00
2022-09-18T10:21:18.783Z,3.33
2022-09-18T10:26:35.717Z,3.13
2022-09-18T10:32:03.475Z,3.50
2022-09-18T10:37:44.018Z,4.72
2022-09-18T10:42:58.621Z,3.85
2022-09-18T10:48:19.345Z,4.78
2022-09-18T10:53:39.857Z,5.50
2022-09-18T10:58:52.035Z,3.45
2022-09-18T11:04:08.415Z,1.73
2022-09-18T11:09:21.358Z,4.57
2022-09-18T11:14:32.049Z,2.72
2022-09-18T11:19:41.687Z,1.33
2022-09-18T11:24:50.410Z,1.20
2022-09-18T11:30:30.726Z,1.85
2022-09-18T11:35:46.967Z,2.55
2022-09-18T11:41:10.008Z,2.75
2022-09-18T11:46:37.856Z,2.00
2022-09-18T11:51:56.010Z,5.28
2022-09-18T11:57:14.191Z,2.13
2022-09-18T12:02:42.175Z,3.70
2022-09-18T12:07:54.890Z,1.60
2022-09-18T12:13:20.214Z,3.65
2022-09-18T12:18:33.886Z,1.48
2022-09-18T12:23:41.641Z,2.47
2022-09-18T12:29:04.758Z,2.20
2022-09-18T12:34:22.902Z,2.78
2022-09-18T12:39:50.744Z,4.25
2022-09-18T12:45:19.243Z,1.55
2022-09-18T12:50:56.405Z,5.95
2022-09-18T12:56:25.475Z,1.48
2022-09-18T13:01:37.082Z,1.13
2022-09-18T13:07:10.467Z,0.95
2022-09-18T13:12:27.915Z,2.03
2022-09-18T13:17:42.856Z,1.60
2022-09-18T13:23:04.559Z,3.17
2022-09-18T13:28:17.378Z,1.98
2022-09-18T13:33:32.895Z,1.77
2022-09-18T13:38:59.724Z,3.70
2022-09-18T13:44:20.678Z,1.42
2022-09-18T13:49:50.823Z,4.13
2022-09-18T13:55:50.017Z,2.20
2022-09-18T14:01:06.966Z,1.33
2022-09-18T14:06:55.006Z,2.22
2022-09-18T14:12:20.865Z,1.45
2022-09-18T14:17:37.143Z,1.50
2022-09-18T14:22:44.256Z,1.40
2022-09-18T14:28:03.875Z,2.45
2022-09-18T14:33:24.979Z,3.05
2022-09-18T14:38:41.535Z,1.67
2022-09-18T14:49:27.982Z,0.65
2022-09-18T14:54:31.582Z,0.95
2022-09-18T14:59:35.025Z,4.57
2022-09-18T15:04:42.972Z,1.52
2022-09-18T15:09:49.598Z,1.27
2022-09-18T15:14:52.587Z,2.13
2022-09-18T15:19:59.328Z,1.53
2022-09-18T15:25:02.669Z,0.80
2022-09-18T15:30:15.288Z,1.00
2022-09-18T15:35:22.788Z,1.48
2022-09-18T15:40:31.625Z,1.30
2022-09-18T15:45:36.991Z,3.47
2022-09-18T15:50:43.369Z,3.63
2022-09-18T15:55:55.819Z,1.23
2022-09-18T16:01:06.497Z,1.07
2022-09-18T16:06:25.152Z,2.90
2022-09-18T16:12:12.096Z,2.33
2022-09-18T16:17:59.708Z,2.93
2022-09-18T16:23:24.859Z,2.67
2022-09-18T16:28:34.139Z,2.65
2022-09-18T16:33:50.030Z,3.60
2022-09-18T16:39:15.288Z,1.30
2022-09-18T16:44:27.686Z,1.83
2022-09-18T16:49:45.704Z,2.00
2022-09-18T16:55:00.987Z,1.30
2022-09-18T17:00:09.377Z,3.00
2022-09-18T17:05:17.130Z,1.70
2022-09-18T17:10:40.207Z,2.23
2022-09-18T17:15:52.700Z,1.70
2022-09-18T17:21:04.083Z,1.27
2022-09-18T17:26:14.795Z,2.40
2022-09-18T17:31:25.308Z,1.20
2022-09-18T17:36:42.023Z,1.30
2022-09-18T17:41:53.329Z,3.23
2022-09-18T17:47:00.827Z,1.63
2022-09-18T17:52:11.724Z,1.63
2022-09-18T17:57:21.978Z,1.67
2022-09-18T18:02:38.991Z,2.30
2022-09-18T18:07:46.477Z,1.57
2022-09-18T18:12:57.948Z,1.37
2022-09-18T18:18:02.834Z,4.10
2022-09-18T18:23:14.227Z,1.43
2022-09-18T18:28:33.210Z,1.73
2022-09-18T18:33:42.010Z,2.00
2022-09-18T18:38:53.968Z,2.07
2022-09-18T18:44:06.710Z,1.37
2022-09-18T18:49:15.814Z,2.27
2022-09-18T18:54:24.280Z,1.07
2022-09-18T18:59:32.720Z,2.50
2022-09-18T19:04:38.456Z,3.53
2022-09-18T19:09:45.001Z,1.40
2022-09-18T19:14:52.486Z,3.83
2022-09-18T19:19:59.242Z,2.23
2022-09-18T19:25:35.821Z,1.60
2022-09-18T19:30:51.630Z,2.23
2022-09-18T19:35:58.872Z,1.17
2022-09-18T19:41:06.847Z,1.17
2022-09-18T19:46:19.370Z,1.20
2022-09-18T19:51:30.537Z,1.87
2022-09-18T19:56:43.009Z,2.07
2022-09-18T20:01:52.761Z,1.20
2022-09-18T20:07:09.027Z,1.93
2022-09-18T20:12:13.256Z,2.73
2022-09-18T20:17:21.031Z,1.60
2022-09-18T20:22:29.981Z,1.43
2022-09-18T20:27:38.496Z,2.33
2022-09-18T20:32:46.431Z,2.07
2022-09-18T20:37:53.402Z,1.03
2022-09-18T20:42:58.038Z,0.63
2022-09-18T20:48:07.673Z,0.90
2022-09-18T20:53:20.971Z,1.37
2022-09-18T20:58:27.613Z,2.20
2022-09-18T21:03:37.832Z,2.57
2022-09-18T21:08:44.809Z,1.63
2022-09-18T21:13:55.767Z,1.40
2022-09-18T21:19:04.917Z,1.00
2022-09-18T21:24:16.734Z,1.10
2022-09-18T21:29:23.786Z,2.30
2022-09-18T21:34:37.007Z,1.60
2022-09-18T21:39:42.996Z,2.83
2022-09-18T21:44:47.589Z,1.90
2022-09-18T21:49:57.736Z,2.30
2022-09-18T21:55:03.038Z,2.03
2022-09-18T22:00:10.546Z,3.13
2022-09-18T22:05:18.850Z,5.60
2022-09-18T22:10:25.506Z,4.17
2022-09-18T22:15:34.557Z,2.03
2022-09-18T22:20:42.578Z,2.23
2022-09-18T22:25:47.203Z,2.67
2022-09-18T22:30:53.780Z,4.67
2022-09-18T22:36:10.341Z,2.23
2022-09-18T22:41:16.112Z,2.13
2022-09-18T22:46:22.197Z,3.67
2022-09-18T22:51:43.837Z,3.03
2022-09-18T22:56:52.187Z,3.43
2022-09-18T23:02:07.728Z,1.83
2022-09-18T23:07:18.315Z,1.53
2022-09-18T23:12:26.660Z,4.17
2022-09-18T23:17:37.891Z,3.50
2022-09-18T23:22:45.965Z,2.53
2022-09-18T23:27:56.532Z,2.63
2022-09-18T23:33:02.337Z,2.33
2022-09-18T23:38:15.263Z,3.10
2022-09-18T23:43:34.005Z,0.90
2022-09-18T23:48:38.884Z,1.60
2022-09-18T23:53:49.456Z,1.37
2022-09-18T23:58:56.015Z,1.90
